createdAt,value
2023-01-09T00:00:08.053Z,0
2023-01-09T00:03:07.575Z,0
2023-01-09T00:06:07.757Z,0
2023-01-09T00:09:07.578Z,0
2023-01-09T00:12:07.647Z,0
2023-01-09T00:15:07.658Z,0
2023-01-09T00:18:07.635Z,0
2023-01-09T00:21:07.711Z,0
2023-01-09T00:24:07.629Z,0
2023-01-09T00:27:07.671Z,0
2023-01-09T00:30:07.739Z,0
2023-01-09T00:33:07.641Z,0
2023-01-09T00:36:07.618Z,0
2023-01-09T00:39:07.586Z,0
2023-01-09T00:42:07.585Z,0
2023-01-09T00:45:07.629Z,0
2023-01-09T00:48:07.654Z,0
2023-01-09T00:51:07.620Z,0
2023-01-09T00:54:07.566Z,0
2023-01-09T00:57:07.605Z,0
2023-01-09T01:00:07.721Z,0
2023-01-09T01:03:07.947Z,0
2023-01-09T01:06:07.538Z,0
2023-01-09T01:09:07.681Z,0
2023-01-09T01:12:07.641Z,0
2023-01-09T01:15:07.827Z,0
2023-01-09T01:18:07.586Z,0
2023-01-09T01:21:07.645Z,0
2023-01-09T01:24:07.608Z,0
2023-01-09T01:27:07.605Z,0
2023-01-09T01:30:07.627Z,0
2023-01-09T01:33:07.574Z,0
2023-01-09T01:36:07.545Z,0
2023-01-09T01:39:07.587Z,0
2023-01-09T01:42:07.640Z,0
2023-01-09T01:45:07.716Z,0
2023-01-09T01:48:07.647Z,0
2023-01-09T01:51:07.579Z,0
2023-01-09T01:54:07.734Z,0
2023-01-09T01:57:07.609Z,0
2023-01-09T02:00:07.803Z,0
2023-01-09T02:03:08.013Z,0
2023-01-09T02:06:07.681Z,0
2023-01-09T02:09:07.616Z,0
2023-01-09T02:12:07.728Z,0
2023-01-09T02:15:08.125Z,0
2023-01-09T02:18:07.610Z,0
2023-01-09T02:21:07.590Z,0
2023-01-09T02:24:07.757Z,0
2023-01-09T02:27:07.674Z,0
2023-01-09T02:30:07.627Z,0
2023-01-09T02:33:07.586Z,0
2023-01-09T02:36:07.628Z,0
2023-01-09T02:39:08.228Z,0
2023-01-09T02:42:07.592Z,0
2023-01-09T02:45:07.643Z,0
2023-01-09T02:48:07.637Z,0
2023-01-09T02:51:07.630Z,0
2023-01-09T02:54:07.618Z,0
2023-01-09T02:57:07.628Z,0
2023-01-09T03:00:07.702Z,0
2023-01-09T03:03:07.958Z,0
2023-01-09T03:06:07.613Z,0
2023-01-09T03:09:07.633Z,0
2023-01-09T03:12:07.702Z,0
2023-01-09T03:15:07.620Z,0
2023-01-09T03:18:07.600Z,0
2023-01-09T03:21:07.607Z,0
2023-01-09T03:24:07.604Z,0
2023-01-09T03:27:07.757Z,0
2023-01-09T03:30:07.655Z,0
2023-01-09T03:33:07.767Z,0
2023-01-09T03:36:07.589Z,0
2023-01-09T03:39:07.667Z,0
2023-01-09T03:42:07.644Z,0
2023-01-09T03:45:07.584Z,0
2023-01-09T03:48:07.722Z,0
2023-01-09T03:51:07.547Z,0
2023-01-09T03:54:07.615Z,0
2023-01-09T03:57:07.591Z,0
2023-01-09T04:00:07.659Z,0
2023-01-09T04:03:07.657Z,0
2023-01-09T04:06:07.661Z,0
2023-01-09T04:09:07.647Z,0
2023-01-09T04:12:07.622Z,0
2023-01-09T04:15:07.584Z,0
2023-01-09T04:18:07.687Z,0
2023-01-09T04:21:07.593Z,0
2023-01-09T04:24:07.636Z,0
2023-01-09T04:27:07.639Z,0
2023-01-09T04:30:07.600Z,0
2023-01-09T04:33:07.638Z,0
2023-01-09T04:36:07.631Z,0
2023-01-09T04:39:07.786Z,0
2023-01-09T04:42:07.577Z,0
2023-01-09T04:45:07.645Z,0
2023-01-09T04:48:07.736Z,0
2023-01-09T04:51:07.660Z,0
2023-01-09T04:54:07.618Z,0
2023-01-09T04:57:07.678Z,0
2023-01-09T05:00:07.845Z,0
2023-01-09T05:03:07.666Z,0
2023-01-09T05:06:07.646Z,0
2023-01-09T05:09:07.672Z,0
2023-01-09T05:12:08.742Z,0
2023-01-09T05:15:07.792Z,0
2023-01-09T05:18:07.583Z,0
2023-01-09T05:21:07.616Z,0
2023-01-09T05:24:07.656Z,0
2023-01-09T05:27:07.639Z,0
2023-01-09T05:30:07.760Z,0
2023-01-09T05:33:07.599Z,0
2023-01-09T05:36:07.729Z,0
2023-01-09T05:39:07.604Z,0
2023-01-09T05:42:07.581Z,0
2023-01-09T05:45:07.648Z,0
2023-01-09T05:48:07.657Z,0
2023-01-09T05:51:07.671Z,0
2023-01-09T05:54:07.691Z,0
2023-01-09T05:57:07.616Z,0
2023-01-09T06:00:07.723Z,0
2023-01-09T06:03:08.131Z,0
2023-01-09T06:06:07.724Z,0
2023-01-09T06:09:07.732Z,0
2023-01-09T06:12:07.619Z,0
2023-01-09T06:15:10.986Z,0
2023-01-09T06:18:07.717Z,0
2023-01-09T06:21:07.617Z,0
2023-01-09T06:24:07.759Z,0
2023-01-09T06:27:07.628Z,0
2023-01-09T06:30:07.731Z,0
2023-01-09T06:33:07.769Z,0
2023-01-09T06:36:07.608Z,0
2023-01-09T06:39:07.913Z,0
2023-01-09T06:42:07.725Z,0
2023-01-09T06:45:07.654Z,0
2023-01-09T06:48:07.672Z,0
2023-01-09T06:51:07.627Z,0
2023-01-09T06:54:07.588Z,3
2023-01-09T06:57:07.715Z,3
2023-01-09T07:00:07.847Z,7
2023-01-09T07:03:07.631Z,10
2023-01-09T07:06:07.567Z,17
2023-01-09T07:09:07.641Z,33
2023-01-09T07:12:07.645Z,60
2023-01-09T07:15:07.720Z,90
2023-01-09T07:18:07.662Z,143
2023-01-09T07:21:07.694Z,163
2023-01-09T07:24:07.702Z,207
2023-01-09T07:27:07.701Z,347
2023-01-09T07:30:07.758Z,370
2023-01-09T07:33:10.911Z,443
2023-01-09T07:36:07.616Z,517
2023-01-09T07:39:07.806Z,570
2023-01-09T07:42:07.626Z,617
2023-01-09T07:45:07.720Z,670
2023-01-09T07:48:07.747Z,740
2023-01-09T07:51:07.720Z,817
2023-01-09T07:54:07.734Z,867
2023-01-09T07:57:07.884Z,927
2023-01-09T08:00:08.549Z,1000
2023-01-09T08:03:07.938Z,1057
2023-01-09T08:06:07.840Z,1110
2023-01-09T08:09:07.661Z,1167
2023-01-09T08:12:07.706Z,1220
2023-01-09T08:15:07.826Z,1293
2023-01-09T08:18:07.784Z,1363
2023-01-09T08:21:07.702Z,1493
2023-01-09T08:24:07.774Z,1743
2023-01-09T08:27:07.652Z,2197
2023-01-09T08:30:07.982Z,2580
2023-01-09T08:33:07.726Z,3367
2023-01-09T08:36:08.241Z,3230
2023-01-09T08:39:07.661Z,3223
2023-01-09T08:42:07.757Z,3193
2023-01-09T08:45:07.627Z,2447
2023-01-09T08:48:07.677Z,2750
2023-01-09T08:51:07.706Z,2820
2023-01-09T08:54:08.261Z,3143
2023-01-09T08:57:08.148Z,3070
2023-01-09T09:00:08.522Z,3753
2023-01-09T09:03:08.621Z,4443
2023-01-09T09:06:09.061Z,4387
2023-01-09T09:09:08.078Z,3403
2023-01-09T09:12:07.891Z,3887
2023-01-09T09:15:09.692Z,7317
2023-01-09T09:18:07.707Z,3703
2023-01-09T09:21:08.287Z,3453
2023-01-09T09:24:07.761Z,5710
2023-01-09T09:27:07.505Z,7560
2023-01-09T09:30:07.677Z,12077
2023-01-09T09:33:07.542Z,9293
2023-01-09T09:36:07.706Z,15193
2023-01-09T09:39:07.601Z,14853
2023-01-09T09:42:07.551Z,13990
2023-01-09T09:45:07.593Z,7217
2023-01-09T09:48:07.560Z,9010
2023-01-09T09:51:07.730Z,7717
2023-01-09T09:54:07.746Z,7203
2023-01-09T09:57:07.587Z,5617
2023-01-09T10:00:07.711Z,10707
2023-01-09T10:03:07.942Z,12407
2023-01-09T10:06:07.519Z,18387
2023-01-09T10:09:07.849Z,18097
2023-01-09T10:12:07.525Z,18377
2023-01-09T10:15:07.578Z,18757
2023-01-09T10:18:07.581Z,18793
2023-01-09T10:21:07.734Z,18937
2023-01-09T10:24:07.861Z,19133
2023-01-09T10:27:07.539Z,18437
2023-01-09T10:30:07.805Z,7407
2023-01-09T10:33:07.623Z,9103
2023-01-09T10:36:07.663Z,12153
2023-01-09T10:39:07.597Z,10060
2023-01-09T10:42:07.606Z,10813
2023-01-09T10:45:07.621Z,21733
2023-01-09T10:48:07.616Z,20760
2023-01-09T10:51:07.487Z,5953
2023-01-09T10:54:07.560Z,7490
2023-01-09T10:57:07.653Z,8543
2023-01-09T11:00:07.881Z,11883
2023-01-09T11:03:07.821Z,21750
2023-01-09T11:06:07.659Z,6463
2023-01-09T11:09:07.569Z,18460
2023-01-09T11:12:07.627Z,21143
2023-01-09T11:15:07.667Z,21013
2023-01-09T11:18:07.680Z,21097
2023-01-09T11:21:07.558Z,20883
2023-01-09T11:24:07.600Z,21027
2023-01-09T11:27:07.511Z,12887
2023-01-09T11:30:07.808Z,6230
2023-01-09T11:33:07.513Z,7293
2023-01-09T11:36:07.581Z,7300
2023-01-09T11:39:07.598Z,21083
2023-01-09T11:42:07.600Z,21020
2023-01-09T11:45:07.563Z,21263
2023-01-09T11:48:07.618Z,18610
2023-01-09T11:51:07.625Z,8137
2023-01-09T11:54:07.516Z,12303
2023-01-09T11:57:07.619Z,7300
2023-01-09T12:00:07.756Z,8647
2023-01-09T12:03:07.952Z,6467
2023-01-09T12:06:07.605Z,6560
2023-01-09T12:09:07.669Z,5520
2023-01-09T12:12:07.508Z,5703
2023-01-09T12:15:09.880Z,5813
2023-01-09T12:18:07.551Z,5853
2023-01-09T12:21:07.723Z,4870
2023-01-09T12:24:07.639Z,4853
2023-01-09T12:27:07.605Z,4733
2023-01-09T12:30:07.740Z,5827
2023-01-09T12:33:07.570Z,7130
2023-01-09T12:36:07.602Z,5927
2023-01-09T12:39:07.613Z,4513
2023-01-09T12:42:07.515Z,4393
2023-01-09T12:45:07.669Z,4710
2023-01-09T12:48:07.546Z,5563
2023-01-09T12:51:07.584Z,4533
2023-01-09T12:54:07.744Z,5593
2023-01-09T12:57:07.641Z,5530
2023-01-09T13:00:07.718Z,6940
2023-01-09T13:03:19.867Z,5047
2023-01-09T13:06:07.580Z,4450
2023-01-09T13:09:07.641Z,7003
2023-01-09T13:12:10.393Z,7163
2023-01-09T13:15:07.615Z,5547
2023-01-09T13:18:07.551Z,6257
2023-01-09T13:21:07.652Z,6400
2023-01-09T13:24:07.682Z,3557
2023-01-09T13:27:07.576Z,4480
2023-01-09T13:30:07.688Z,5053
2023-01-09T13:33:07.563Z,4307
2023-01-09T13:36:07.618Z,3323
2023-01-09T13:39:07.591Z,3087
2023-01-09T13:42:07.642Z,3923
2023-01-09T13:45:07.539Z,3623
2023-01-09T13:48:07.985Z,3310
2023-01-09T13:51:07.529Z,3410
2023-01-09T13:54:07.656Z,3680
2023-01-09T13:57:07.641Z,3757
2023-01-09T14:00:07.829Z,3983
2023-01-09T14:03:07.559Z,2790
2023-01-09T14:06:07.652Z,3340
2023-01-09T14:09:07.593Z,2773
2023-01-09T14:12:07.630Z,2650
2023-01-09T14:15:07.522Z,3527
2023-01-09T14:18:07.709Z,2697
2023-01-09T14:24:13.565Z,2133
2023-01-09T14:27:07.556Z,8627
2023-01-09T14:30:07.704Z,2917
2023-01-09T14:33:07.712Z,2143
2023-01-09T14:36:07.608Z,2287
2023-01-09T14:39:07.619Z,2083
2023-01-09T14:42:07.641Z,1623
2023-01-09T14:45:07.715Z,1913
2023-01-09T14:48:07.644Z,1537
2023-01-09T14:51:07.618Z,1450
2023-01-09T14:57:08.143Z,1307
2023-01-09T15:00:08.208Z,1153
2023-01-09T15:03:08.175Z,1063
2023-01-09T15:06:08.112Z,917
2023-01-09T15:09:08.302Z,680
2023-01-09T15:12:08.135Z,553
2023-01-09T15:15:08.435Z,437
2023-01-09T15:18:08.021Z,360
2023-01-09T15:21:08.081Z,283
2023-01-09T15:24:08.079Z,227
2023-01-09T15:27:07.939Z,193
2023-01-09T15:30:08.127Z,147
2023-01-09T15:33:07.926Z,107
2023-01-09T15:36:07.934Z,80
2023-01-09T15:39:08.367Z,60
2023-01-09T15:42:07.911Z,40
2023-01-09T15:45:08.040Z,23
2023-01-09T15:48:07.936Z,17
2023-01-09T15:51:07.878Z,10
2023-01-09T15:54:08.021Z,3
2023-01-09T15:57:08.123Z,3
2023-01-09T16:00:07.990Z,3
2023-01-09T16:03:08.020Z,0
2023-01-09T16:06:08.037Z,0
2023-01-09T16:09:08.352Z,0
2023-01-09T16:12:08.004Z,0
2023-01-09T16:15:07.988Z,0
2023-01-09T16:18:07.978Z,0
2023-01-09T16:21:07.913Z,0
2023-01-09T16:24:07.998Z,0
2023-01-09T16:27:08.199Z,0
2023-01-09T16:30:08.333Z,0
2023-01-09T16:33:07.958Z,0
2023-01-09T16:36:08.036Z,0
2023-01-09T16:39:07.953Z,0
2023-01-09T16:42:07.977Z,0
2023-01-09T16:45:08.055Z,0
2023-01-09T16:48:07.897Z,0
2023-01-09T16:51:07.915Z,0
2023-01-09T16:54:07.908Z,0
2023-01-09T16:57:07.932Z,0
2023-01-09T17:00:07.940Z,0
2023-01-09T17:03:07.973Z,0
2023-01-09T17:06:07.944Z,0
2023-01-09T17:09:07.933Z,0
2023-01-09T17:12:07.980Z,0
2023-01-09T17:15:07.972Z,0
2023-01-09T17:18:07.952Z,0
2023-01-09T17:21:07.940Z,0
2023-01-09T17:24:07.929Z,0
2023-01-09T17:27:07.990Z,0
2023-01-09T17:30:25.544Z,0
2023-01-09T17:33:08.098Z,0
2023-01-09T17:36:07.943Z,0
2023-01-09T17:39:08.063Z,0
2023-01-09T17:42:07.921Z,0
2023-01-09T17:45:07.908Z,0
2023-01-09T17:48:07.890Z,0
2023-01-09T17:51:08.026Z,0
2023-01-09T17:54:07.876Z,0
2023-01-09T17:57:07.929Z,0
2023-01-09T18:00:08.072Z,0
2023-01-09T18:03:07.885Z,0
2023-01-09T18:06:07.930Z,0
2023-01-09T18:09:08.172Z,0
2023-01-09T18:12:08.414Z,0
2023-01-09T18:15:08.013Z,0
2023-01-09T18:18:07.977Z,0
2023-01-09T18:21:07.865Z,0
2023-01-09T18:24:08.103Z,0
2023-01-09T18:27:07.991Z,0
2023-01-09T18:30:12.237Z,0
2023-01-09T18:33:07.950Z,0
2023-01-09T18:36:08.270Z,0
2023-01-09T18:39:08.115Z,0
2023-01-09T18:42:08.087Z,0
2023-01-09T18:45:08.213Z,0
2023-01-09T18:48:07.902Z,0
2023-01-09T18:51:08.156Z,0
2023-01-09T18:54:07.988Z,0
2023-01-09T18:57:08.072Z,0
2023-01-09T19:00:07.919Z,0
2023-01-09T19:03:07.831Z,0
2023-01-09T19:06:08.085Z,0
2023-01-09T19:09:07.859Z,0
2023-01-09T19:12:08.006Z,0
2023-01-09T19:15:07.897Z,0
2023-01-09T19:18:07.929Z,0
2023-01-09T19:21:08.000Z,0
2023-01-09T19:24:07.963Z,0
2023-01-09T19:27:07.873Z,0
2023-01-09T19:30:08.086Z,0
2023-01-09T19:33:07.887Z,0
2023-01-09T19:36:08.006Z,0
2023-01-09T19:39:07.998Z,0
2023-01-09T19:42:08.010Z,0
2023-01-09T19:45:08.163Z,0
2023-01-09T19:48:07.945Z,0
2023-01-09T19:51:08.015Z,0
2023-01-09T19:57:07.857Z,0
2023-01-09T20:00:08.018Z,0
2023-01-09T20:03:07.957Z,0
2023-01-09T20:06:07.965Z,0
2023-01-09T20:09:07.880Z,0
2023-01-09T20:12:07.994Z,0
2023-01-09T20:15:08.068Z,0
2023-01-09T20:18:07.930Z,0
2023-01-09T20:21:08.130Z,0
2023-01-09T20:24:07.961Z,0
2023-01-09T20:27:07.954Z,0
2023-01-09T20:30:08.156Z,0
2023-01-09T20:33:08.049Z,0
2023-01-09T20:36:08.062Z,0
2023-01-09T20:39:07.927Z,0
2023-01-09T20:42:07.928Z,0
2023-01-09T20:45:08.119Z,0
2023-01-09T20:48:07.950Z,0
2023-01-09T20:51:07.957Z,0
2023-01-09T20:54:07.943Z,0
2023-01-09T20:57:07.923Z,0
2023-01-09T21:00:08.083Z,0
2023-01-09T21:03:07.919Z,0
2023-01-09T21:06:08.113Z,0
2023-01-09T21:09:07.954Z,0
2023-01-09T21:12:07.961Z,0
2023-01-09T21:15:07.963Z,0
2023-01-09T21:18:08.332Z,0
2023-01-09T21:21:07.938Z,0
2023-01-09T21:24:07.956Z,0
2023-01-09T21:27:07.896Z,0
2023-01-09T21:30:08.009Z,0
2023-01-09T21:33:07.967Z,0
2023-01-09T21:36:08.031Z,0
2023-01-09T21:39:11.168Z,0
2023-01-09T21:42:08.005Z,0
2023-01-09T21:45:08.270Z,0
2023-01-09T21:48:07.997Z,0
2023-01-09T21:51:07.847Z,0
2023-01-09T21:54:07.919Z,0
2023-01-09T21:57:07.959Z,0
2023-01-09T22:00:07.999Z,0
2023-01-09T22:03:08.030Z,0
2023-01-09T22:06:07.903Z,0
2023-01-09T22:09:07.834Z,0
2023-01-09T22:12:08.029Z,0
2023-01-09T22:15:07.953Z,0
2023-01-09T22:18:07.943Z,0
2023-01-09T22:21:07.885Z,0
2023-01-09T22:24:07.954Z,0
2023-01-09T22:27:07.903Z,0
2023-01-09T22:30:07.955Z,0
2023-01-09T22:33:07.886Z,0
2023-01-09T22:36:07.947Z,0
2023-01-09T22:39:08.318Z,0
2023-01-09T22:42:08.031Z,0
2023-01-09T22:45:07.953Z,0
2023-01-09T22:48:08.037Z,0
2023-01-09T22:51:07.887Z,0
2023-01-09T22:54:07.956Z,0
2023-01-09T22:57:08.252Z,0
2023-01-09T23:00:08.858Z,0
2023-01-09T23:03:08.312Z,0
2023-01-09T23:06:08.005Z,0
2023-01-09T23:09:07.983Z,0
2023-01-09T23:12:07.998Z,0
2023-01-09T23:15:07.927Z,0
2023-01-09T23:18:07.964Z,0
2023-01-09T23:21:08.233Z,0
2023-01-09T23:24:07.985Z,0
2023-01-09T23:27:07.875Z,0
2023-01-09T23:30:07.860Z,0
2023-01-09T23:33:08.088Z,0
2023-01-09T23:36:07.963Z,0
2023-01-09T23:39:07.965Z,0
2023-01-09T23:42:07.998Z,0
2023-01-09T23:45:08.009Z,0
2023-01-09T23:48:07.899Z,0
2023-01-09T23:51:07.855Z,0
2023-01-09T23:54:08.004Z,0
2023-01-09T23:57:07.847Z,0
